sensor_id;sensor_type;location;lat;lon;timestamp;P1;durP1;ratioP1;P2;durP2;ratioP2
52368;SDS011;38298;50.346;3.526;2022-12-22T00:01:58;9.35;;;5.47;;
52368;SDS011;38298;50.346;3.526;2022-12-22T00:04:43;6.50;;;4.85;;
52368;SDS011;38298;50.346;3.526;2022-12-22T00:07:29;10.68;;;5.63;;
52368;SDS011;38298;50.346;3.526;2022-12-22T00:10:13;7.20;;;5.32;;
52368;SDS011;38298;50.346;3.526;2022-12-22T00:12:58;6.70;;;4.88;;
52368;SDS011;38298;50.346;3.526;2022-12-22T00:15:43;7.75;;;5.68;;
52368;SDS011;38298;50.346;3.526;2022-12-22T00:18:28;8.23;;;5.45;;
52368;SDS011;38298;50.346;3.526;2022-12-22T00:21:12;8.65;;;5.70;;
52368;SDS011;38298;50.346;3.526;2022-12-22T00:23:57;7.63;;;5.57;;
52368;SDS011;38298;50.346;3.526;2022-12-22T00:26:42;7.50;;;5.38;;
52368;SDS011;38298;50.346;3.526;2022-12-22T00:29:30;7.30;;;5.00;;
52368;SDS011;38298;50.346;3.526;2022-12-22T00:32:15;7.25;;;5.03;;
52368;SDS011;38298;50.346;3.526;2022-12-22T00:35:00;7.05;;;5.05;;
52368;SDS011;38298;50.346;3.526;2022-12-22T00:37:44;7.40;;;4.93;;
52368;SDS011;38298;50.346;3.526;2022-12-22T00:40:29;8.13;;;4.63;;
52368;SDS011;38298;50.346;3.526;2022-12-22T00:43:13;8.90;;;4.00;;
52368;SDS011;38298;50.346;3.526;2022-12-22T00:45:59;5.00;;;3.72;;
52368;SDS011;38298;50.346;3.526;2022-12-22T00:48:44;4.47;;;3.28;;
52368;SDS011;38298;50.346;3.526;2022-12-22T00:51:29;4.38;;;3.20;;
52368;SDS011;38298;50.346;3.526;2022-12-22T00:54:14;8.45;;;3.50;;
52368;SDS011;38298;50.346;3.526;2022-12-22T00:57:01;4.40;;;3.60;;
52368;SDS011;38298;50.346;3.526;2022-12-22T00:59:46;3.95;;;3.08;;
52368;SDS011;38298;50.346;3.526;2022-12-22T01:02:31;7.57;;;3.65;;
52368;SDS011;38298;50.346;3.526;2022-12-22T01:05:16;3.58;;;2.80;;
52368;SDS011;38298;50.346;3.526;2022-12-22T01:08:01;4.93;;;3.00;;
52368;SDS011;38298;50.346;3.526;2022-12-22T01:10:45;3.05;;;2.60;;
52368;SDS011;38298;50.346;3.526;2022-12-22T01:13:30;6.97;;;2.38;;
52368;SDS011;38298;50.346;3.526;2022-12-22T01:16:15;3.33;;;2.42;;
52368;SDS011;38298;50.346;3.526;2022-12-22T01:19:00;2.83;;;1.98;;
52368;SDS011;38298;50.346;3.526;2022-12-22T01:21:44;2.90;;;2.20;;
52368;SDS011;38298;50.346;3.526;2022-12-22T01:24:29;2.30;;;2.00;;
52368;SDS011;38298;50.346;3.526;2022-12-22T01:27:14;2.90;;;1.70;;
52368;SDS011;38298;50.346;3.526;2022-12-22T01:29:59;3.08;;;1.20;;
52368;SDS011;38298;50.346;3.526;2022-12-22T01:32:44;1.92;;;1.00;;
52368;SDS011;38298;50.346;3.526;2022-12-22T01:35:30;2.13;;;1.02;;
52368;SDS011;38298;50.346;3.526;2022-12-22T01:38:15;1.95;;;0.80;;
52368;SDS011;38298;50.346;3.526;2022-12-22T01:41:00;1.60;;;0.98;;
52368;SDS011;38298;50.346;3.526;2022-12-22T01:43:45;0.80;;;0.80;;
52368;SDS011;38298;50.346;3.526;2022-12-22T01:46:35;2.55;;;0.80;;
52368;SDS011;38298;50.346;3.526;2022-12-22T01:49:21;0.93;;;0.70;;
52368;SDS011;38298;50.346;3.526;2022-12-22T01:52:08;6.22;;;0.80;;
52368;SDS011;38298;50.346;3.526;2022-12-22T01:54:54;1.38;;;0.90;;
52368;SDS011;38298;50.346;3.526;2022-12-22T01:57:40;0.90;;;0.82;;
52368;SDS011;38298;50.346;3.526;2022-12-22T02:00:24;1.23;;;0.90;;
52368;SDS011;38298;50.346;3.526;2022-12-22T02:03:16;2.45;;;1.00;;
52368;SDS011;38298;50.346;3.526;2022-12-22T02:06:09;1.83;;;1.38;;
52368;SDS011;38298;50.346;3.526;2022-12-22T02:09:07;1.40;;;1.08;;
52368;SDS011;38298;50.346;3.526;2022-12-22T02:12:00;2.55;;;1.60;;
52368;SDS011;38298;50.346;3.526;2022-12-22T02:14:53;2.03;;;1.70;;
52368;SDS011;38298;50.346;3.526;2022-12-22T02:20:48;2.35;;;2.13;;
52368;SDS011;38298;50.346;3.526;2022-12-22T02:26:37;6.50;;;4.07;;
52368;SDS011;38298;50.346;3.526;2022-12-22T02:29:30;5.28;;;3.50;;
52368;SDS011;38298;50.346;3.526;2022-12-22T02:32:15;3.58;;;3.28;;
52368;SDS011;38298;50.346;3.526;2022-12-22T02:35:00;8.38;;;3.30;;
52368;SDS011;38298;50.346;3.526;2022-12-22T02:49:38;5.82;;;2.92;;
52368;SDS011;38298;50.346;3.526;2022-12-22T02:52:26;5.13;;;3.20;;
52368;SDS011;38298;50.346;3.526;2022-12-22T02:55:12;5.22;;;3.03;;
52368;SDS011;38298;50.346;3.526;2022-12-22T02:57:58;5.22;;;2.90;;
52368;SDS011;38298;50.346;3.526;2022-12-22T03:00:43;4.65;;;3.17;;
52368;SDS011;38298;50.346;3.526;2022-12-22T03:03:27;7.80;;;3.33;;
52368;SDS011;38298;50.346;3.526;2022-12-22T03:06:12;8.48;;;3.40;;
52368;SDS011;38298;50.346;3.526;2022-12-22T03:08:57;6.07;;;3.22;;
52368;SDS011;38298;50.346;3.526;2022-12-22T03:11:41;6.65;;;3.30;;
52368;SDS011;38298;50.346;3.526;2022-12-22T03:14:26;3.22;;;2.55;;
52368;SDS011;38298;50.346;3.526;2022-12-22T03:17:10;5.20;;;2.75;;
52368;SDS011;38298;50.346;3.526;2022-12-22T03:19:55;5.30;;;3.25;;
52368;SDS011;38298;50.346;3.526;2022-12-22T03:22:39;3.40;;;2.80;;
52368;SDS011;38298;50.346;3.526;2022-12-22T03:25:24;5.25;;;2.70;;
52368;SDS011;38298;50.346;3.526;2022-12-22T03:28:09;3.28;;;2.70;;
52368;SDS011;38298;50.346;3.526;2022-12-22T03:30:35;6.18;;;2.88;;
52368;SDS011;38298;50.346;3.526;2022-12-22T03:33:01;8.27;;;2.85;;
52368;SDS011;38298;50.346;3.526;2022-12-22T03:35:27;4.38;;;3.03;;
52368;SDS011;38298;50.346;3.526;2022-12-22T03:37:53;3.95;;;3.03;;
52368;SDS011;38298;50.346;3.526;2022-12-22T03:40:19;4.88;;;3.30;;
52368;SDS011;38298;50.346;3.526;2022-12-22T03:42:45;4.72;;;2.90;;
52368;SDS011;38298;50.346;3.526;2022-12-22T03:45:30;4.47;;;3.35;;
52368;SDS011;38298;50.346;3.526;2022-12-22T03:48:15;6.13;;;3.67;;
52368;SDS011;38298;50.346;3.526;2022-12-22T03:50:42;6.68;;;3.90;;
52368;SDS011;38298;50.346;3.526;2022-12-22T03:53:08;6.00;;;3.97;;
52368;SDS011;38298;50.346;3.526;2022-12-22T03:55:34;5.57;;;3.33;;
52368;SDS011;38298;50.346;3.526;2022-12-22T03:58:00;4.68;;;3.65;;
52368;SDS011;38298;50.346;3.526;2022-12-22T04:00:26;6.60;;;4.22;;
52368;SDS011;38298;50.346;3.526;2022-12-22T04:02:52;7.63;;;4.05;;
52368;SDS011;38298;50.346;3.526;2022-12-22T04:05:19;8.65;;;4.20;;
52368;SDS011;38298;50.346;3.526;2022-12-22T04:07:45;7.03;;;4.80;;
52368;SDS011;38298;50.346;3.526;2022-12-22T04:10:11;5.65;;;4.13;;
52368;SDS011;38298;50.346;3.526;2022-12-22T04:12:56;5.93;;;4.53;;
52368;SDS011;38298;50.346;3.526;2022-12-22T04:15:25;6.40;;;4.10;;
52368;SDS011;38298;50.346;3.526;2022-12-22T04:17:52;9.65;;;4.90;;
52368;SDS011;38298;50.346;3.526;2022-12-22T04:20:18;6.57;;;4.38;;
52368;SDS011;38298;50.346;3.526;2022-12-22T04:22:44;9.38;;;4.40;;
52368;SDS011;38298;50.346;3.526;2022-12-22T04:25:11;9.68;;;4.78;;
52368;SDS011;38298;50.346;3.526;2022-12-22T04:27:37;8.68;;;4.45;;
52368;SDS011;38298;50.346;3.526;2022-12-22T04:30:03;9.68;;;3.70;;
52368;SDS011;38298;50.346;3.526;2022-12-22T04:32:30;5.15;;;2.90;;
52368;SDS011;38298;50.346;3.526;2022-12-22T04:34:56;8.68;;;3.47;;
52368;SDS011;38298;50.346;3.526;2022-12-22T04:37:22;5.20;;;3.67;;
52368;SDS011;38298;50.346;3.526;2022-12-22T04:39:48;5.20;;;3.47;;
52368;SDS011;38298;50.346;3.526;2022-12-22T04:42:14;4.72;;;3.00;;
52368;SDS011;38298;50.346;3.526;2022-12-22T04:44:40;4.05;;;2.60;;
52368;SDS011;38298;50.346;3.526;2022-12-22T04:47:06;4.00;;;2.35;;
52368;SDS011;38298;50.346;3.526;2022-12-22T04:49:32;3.08;;;2.25;;
52368;SDS011;38298;50.346;3.526;2022-12-22T04:51:58;3.22;;;2.45;;
52368;SDS011;38298;50.346;3.526;2022-12-22T04:54:24;4.20;;;2.90;;
52368;SDS011;38298;50.346;3.526;2022-12-22T04:56:50;3.95;;;2.90;;
52368;SDS011;38298;50.346;3.526;2022-12-22T04:59:16;4.15;;;3.08;;
52368;SDS011;38298;50.346;3.526;2022-12-22T05:01:42;5.15;;;3.10;;
52368;SDS011;38298;50.346;3.526;2022-12-22T05:04:08;6.00;;;3.40;;
52368;SDS011;38298;50.346;3.526;2022-12-22T05:06:34;8.13;;;3.38;;
52368;SDS011;38298;50.346;3.526;2022-12-22T05:09:00;3.90;;;2.70;;
52368;SDS011;38298;50.346;3.526;2022-12-22T05:11:26;4.97;;;3.30;;
52368;SDS011;38298;50.346;3.526;2022-12-22T05:13:52;4.22;;;3.03;;
52368;SDS011;38298;50.346;3.526;2022-12-22T05:16:18;4.70;;;3.47;;
52368;SDS011;38298;50.346;3.526;2022-12-22T05:18:44;4.95;;;3.15;;
52368;SDS011;38298;50.346;3.526;2022-12-22T05:21:15;5.40;;;3.47;;
52368;SDS011;38298;50.346;3.526;2022-12-22T05:23:41;5.82;;;3.63;;
52368;SDS011;38298;50.346;3.526;2022-12-22T05:26:07;4.57;;;3.88;;
52368;SDS011;38298;50.346;3.526;2022-12-22T05:28:33;6.18;;;3.72;;
52368;SDS011;38298;50.346;3.526;2022-12-22T05:31:03;4.40;;;3.20;;
52368;SDS011;38298;50.346;3.526;2022-12-22T05:33:29;4.63;;;3.17;;
52368;SDS011;38298;50.346;3.526;2022-12-22T05:35:55;4.88;;;3.58;;
52368;SDS011;38298;50.346;3.526;2022-12-22T05:38:21;5.82;;;3.70;;
52368;SDS011;38298;50.346;3.526;2022-12-22T05:40:47;5.45;;;3.65;;
52368;SDS011;38298;50.346;3.526;2022-12-22T05:43:13;5.82;;;4.03;;
52368;SDS011;38298;50.346;3.526;2022-12-22T05:45:40;6.55;;;4.20;;
52368;SDS011;38298;50.346;3.526;2022-12-22T05:48:06;7.32;;;4.80;;
52368;SDS011;38298;50.346;3.526;2022-12-22T05:50:32;7.53;;;4.68;;
52368;SDS011;38298;50.346;3.526;2022-12-22T05:52:58;4.47;;;3.47;;
52368;SDS011;38298;50.346;3.526;2022-12-22T05:55:24;5.25;;;3.70;;
52368;SDS011;38298;50.346;3.526;2022-12-22T05:57:50;4.70;;;3.50;;
52368;SDS011;38298;50.346;3.526;2022-12-22T06:00:16;3.25;;;2.47;;
52368;SDS011;38298;50.346;3.526;2022-12-22T06:02:43;3.63;;;2.65;;
52368;SDS011;38298;50.346;3.526;2022-12-22T06:05:09;3.22;;;2.53;;
52368;SDS011;38298;50.346;3.526;2022-12-22T06:07:36;3.65;;;2.33;;
52368;SDS011;38298;50.346;3.526;2022-12-22T06:10:03;3.38;;;2.50;;
52368;SDS011;38298;50.346;3.526;2022-12-22T06:12:29;5.72;;;2.58;;
52368;SDS011;38298;50.346;3.526;2022-12-22T06:14:55;2.40;;;2.00;;
52368;SDS011;38298;50.346;3.526;2022-12-22T06:17:21;2.72;;;2.08;;
52368;SDS011;38298;50.346;3.526;2022-12-22T06:19:47;3.85;;;2.70;;
52368;SDS011;38298;50.346;3.526;2022-12-22T06:22:13;4.63;;;2.65;;
52368;SDS011;38298;50.346;3.526;2022-12-22T06:24:39;3.08;;;2.70;;
52368;SDS011;38298;50.346;3.526;2022-12-22T06:27:05;3.60;;;2.67;;
52368;SDS011;38298;50.346;3.526;2022-12-22T06:29:31;4.05;;;3.05;;
52368;SDS011;38298;50.346;3.526;2022-12-22T06:31:57;4.20;;;3.00;;
52368;SDS011;38298;50.346;3.526;2022-12-22T06:34:23;3.78;;;2.80;;
52368;SDS011;38298;50.346;3.526;2022-12-22T06:36:49;3.90;;;2.83;;
52368;SDS011;38298;50.346;3.526;2022-12-22T06:39:15;4.32;;;3.08;;
52368;SDS011;38298;50.346;3.526;2022-12-22T06:41:42;3.60;;;2.88;;
52368;SDS011;38298;50.346;3.526;2022-12-22T06:44:26;3.75;;;3.00;;
52368;SDS011;38298;50.346;3.526;2022-12-22T06:46:52;4.40;;;3.40;;
52368;SDS011;38298;50.346;3.526;2022-12-22T06:49:18;3.55;;;2.65;;
52368;SDS011;38298;50.346;3.526;2022-12-22T06:51:45;3.40;;;2.60;;
52368;SDS011;38298;50.346;3.526;2022-12-22T06:54:10;4.43;;;2.60;;
52368;SDS011;38298;50.346;3.526;2022-12-22T06:56:36;3.55;;;2.58;;
52368;SDS011;38298;50.346;3.526;2022-12-22T06:59:02;4.15;;;2.60;;
52368;SDS011;38298;50.346;3.526;2022-12-22T07:01:29;3.63;;;2.90;;
52368;SDS011;38298;50.346;3.526;2022-12-22T07:03:55;2.70;;;2.33;;
52368;SDS011;38298;50.346;3.526;2022-12-22T07:06:21;4.13;;;2.67;;
52368;SDS011;38298;50.346;3.526;2022-12-22T07:08:47;3.65;;;2.53;;
52368;SDS011;38298;50.346;3.526;2022-12-22T07:11:14;3.92;;;2.85;;
52368;SDS011;38298;50.346;3.526;2022-12-22T07:13:40;3.47;;;2.50;;
52368;SDS011;38298;50.346;3.526;2022-12-22T07:16:07;3.95;;;2.85;;
52368;SDS011;38298;50.346;3.526;2022-12-22T07:18:34;4.80;;;2.88;;
52368;SDS011;38298;50.346;3.526;2022-12-22T07:21:01;6.03;;;2.95;;
52368;SDS011;38298;50.346;3.526;2022-12-22T07:23:27;3.90;;;3.05;;
52368;SDS011;38298;50.346;3.526;2022-12-22T07:25:53;4.38;;;3.40;;
52368;SDS011;38298;50.346;3.526;2022-12-22T07:28:19;5.93;;;3.55;;
52368;SDS011;38298;50.346;3.526;2022-12-22T07:30:46;5.18;;;3.30;;
52368;SDS011;38298;50.346;3.526;2022-12-22T07:33:13;4.93;;;3.00;;
52368;SDS011;38298;50.346;3.526;2022-12-22T07:35:39;3.47;;;2.63;;
52368;SDS011;38298;50.346;3.526;2022-12-22T07:38:05;5.63;;;2.78;;
52368;SDS011;38298;50.346;3.526;2022-12-22T07:40:31;2.92;;;2.38;;
52368;SDS011;38298;50.346;3.526;2022-12-22T07:42:57;5.10;;;3.30;;
52368;SDS011;38298;50.346;3.526;2022-12-22T07:45:23;5.00;;;3.53;;
52368;SDS011;38298;50.346;3.526;2022-12-22T07:47:49;6.50;;;4.43;;
52368;SDS011;38298;50.346;3.526;2022-12-22T07:50:16;9.57;;;4.78;;
52368;SDS011;38298;50.346;3.526;2022-12-22T07:52:58;7.63;;;5.00;;
52368;SDS011;38298;50.346;3.526;2022-12-22T07:55:26;10.02;;;4.88;;
52368;SDS011;38298;50.346;3.526;2022-12-22T07:57:52;9.77;;;5.13;;
52368;SDS011;38298;50.346;3.526;2022-12-22T08:00:19;12.52;;;6.18;;
52368;SDS011;38298;50.346;3.526;2022-12-22T08:02:48;13.77;;;7.07;;
52368;SDS011;38298;50.346;3.526;2022-12-22T08:05:15;13.63;;;7.10;;
52368;SDS011;38298;50.346;3.526;2022-12-22T08:07:41;10.98;;;6.55;;
52368;SDS011;38298;50.346;3.526;2022-12-22T08:10:07;9.07;;;5.53;;
52368;SDS011;38298;50.346;3.526;2022-12-22T08:12:33;7.70;;;4.47;;
52368;SDS011;38298;50.346;3.526;2022-12-22T08:14:59;10.10;;;4.50;;
52368;SDS011;38298;50.346;3.526;2022-12-22T08:17:25;6.35;;;3.83;;
52368;SDS011;38298;50.346;3.526;2022-12-22T08:19:52;4.15;;;3.00;;
52368;SDS011;38298;50.346;3.526;2022-12-22T08:22:18;5.50;;;3.70;;
52368;SDS011;38298;50.346;3.526;2022-12-22T08:24:47;8.75;;;4.00;;
52368;SDS011;38298;50.346;3.526;2022-12-22T08:27:14;5.75;;;3.30;;
52368;SDS011;38298;50.346;3.526;2022-12-22T08:29:43;5.55;;;2.90;;
52368;SDS011;38298;50.346;3.526;2022-12-22T08:32:11;4.38;;;2.53;;
52368;SDS011;38298;50.346;3.526;2022-12-22T08:34:37;2.70;;;2.15;;
52368;SDS011;38298;50.346;3.526;2022-12-22T08:37:04;3.25;;;2.03;;
52368;SDS011;38298;50.346;3.526;2022-12-22T08:39:31;3.10;;;1.90;;
52368;SDS011;38298;50.346;3.526;2022-12-22T08:41:59;5.55;;;1.80;;
52368;SDS011;38298;50.346;3.526;2022-12-22T08:44:28;6.55;;;1.80;;
52368;SDS011;38298;50.346;3.526;2022-12-22T08:46:55;3.47;;;1.83;;
52368;SDS011;38298;50.346;3.526;2022-12-22T08:49:22;4.03;;;2.15;;
52368;SDS011;38298;50.346;3.526;2022-12-22T08:51:48;2.80;;;1.77;;
52368;SDS011;38298;50.346;3.526;2022-12-22T08:54:15;4.10;;;2.25;;
52368;SDS011;38298;50.346;3.526;2022-12-22T08:56:41;2.95;;;2.08;;
52368;SDS011;38298;50.346;3.526;2022-12-22T08:59:07;2.85;;;2.10;;
52368;SDS011;38298;50.346;3.526;2022-12-22T09:01:34;2.50;;;1.77;;
52368;SDS011;38298;50.346;3.526;2022-12-22T09:04:01;3.30;;;1.60;;
52368;SDS011;38298;50.346;3.526;2022-12-22T09:06:27;2.65;;;1.45;;
52368;SDS011;38298;50.346;3.526;2022-12-22T09:08:54;7.28;;;1.67;;
52368;SDS011;38298;50.346;3.526;2022-12-22T09:11:21;2.33;;;1.40;;
52368;SDS011;38298;50.346;3.526;2022-12-22T09:13:48;6.13;;;1.42;;
52368;SDS011;38298;50.346;3.526;2022-12-22T09:16:15;5.63;;;2.05;;
52368;SDS011;38298;50.346;3.526;2022-12-22T09:18:41;4.35;;;1.50;;
52368;SDS011;38298;50.346;3.526;2022-12-22T09:21:07;8.65;;;1.95;;
52368;SDS011;38298;50.346;3.526;2022-12-22T09:23:33;5.50;;;1.55;;
52368;SDS011;38298;50.346;3.526;2022-12-22T09:25:58;6.43;;;1.77;;
52368;SDS011;38298;50.346;3.526;2022-12-22T09:28:24;5.88;;;2.45;;
52368;SDS011;38298;50.346;3.526;2022-12-22T09:30:51;5.50;;;2.03;;
52368;SDS011;38298;50.346;3.526;2022-12-22T09:33:17;5.50;;;2.25;;
52368;SDS011;38298;50.346;3.526;2022-12-22T09:35:43;5.03;;;2.40;;
52368;SDS011;38298;50.346;3.526;2022-12-22T09:38:09;4.95;;;1.63;;
52368;SDS011;38298;50.346;3.526;2022-12-22T09:40:35;4.13;;;2.25;;
52368;SDS011;38298;50.346;3.526;2022-12-22T09:43:02;6.95;;;2.20;;
52368;SDS011;38298;50.346;3.526;2022-12-22T09:45:29;3.97;;;2.22;;
52368;SDS011;38298;50.346;3.526;2022-12-22T09:47:57;6.72;;;2.63;;
52368;SDS011;38298;50.346;3.526;2022-12-22T09:50:24;3.22;;;2.40;;
52368;SDS011;38298;50.346;3.526;2022-12-22T09:52:52;3.78;;;2.47;;
52368;SDS011;38298;50.346;3.526;2022-12-22T09:55:25;5.03;;;2.17;;
52368;SDS011;38298;50.346;3.526;2022-12-22T09:57:56;4.35;;;2.45;;
52368;SDS011;38298;50.346;3.526;2022-12-22T10:00:22;8.50;;;2.92;;
52368;SDS011;38298;50.346;3.526;2022-12-22T10:03:05;8.10;;;2.97;;
52368;SDS011;38298;50.346;3.526;2022-12-22T10:05:37;4.97;;;3.08;;
52368;SDS011;38298;50.346;3.526;2022-12-22T10:08:11;4.88;;;3.40;;
52368;SDS011;38298;50.346;3.526;2022-12-22T10:10:37;5.22;;;3.10;;
52368;SDS011;38298;50.346;3.526;2022-12-22T10:13:03;6.43;;;3.22;;
52368;SDS011;38298;50.346;3.526;2022-12-22T10:15:34;4.97;;;3.00;;
52368;SDS011;38298;50.346;3.526;2022-12-22T10:18:08;5.88;;;2.80;;
52368;SDS011;38298;50.346;3.526;2022-12-22T10:20:35;4.32;;;2.42;;
52368;SDS011;38298;50.346;3.526;2022-12-22T10:23:23;4.90;;;2.20;;
52368;SDS011;38298;50.346;3.526;2022-12-22T10:28:25;4.43;;;2.00;;
52368;SDS011;38298;50.346;3.526;2022-12-22T10:31:12;2.88;;;2.00;;
52368;SDS011;38298;50.346;3.526;2022-12-22T10:33:52;5.65;;;2.50;;
52368;SDS011;38298;50.346;3.526;2022-12-22T10:36:20;5.57;;;2.30;;
52368;SDS011;38298;50.346;3.526;2022-12-22T10:41:33;6.57;;;1.60;;
52368;SDS011;38298;50.346;3.526;2022-12-22T10:44:01;7.32;;;1.77;;
52368;SDS011;38298;50.346;3.526;2022-12-22T10:46:29;4.47;;;1.65;;
52368;SDS011;38298;50.346;3.526;2022-12-22T10:51:34;2.63;;;1.00;;
52368;SDS011;38298;50.346;3.526;2022-12-22T10:54:00;1.35;;;0.88;;
52368;SDS011;38298;50.346;3.526;2022-12-22T10:56:27;2.42;;;0.70;;
52368;SDS011;38298;50.346;3.526;2022-12-22T11:01:30;1.15;;;0.80;;
52368;SDS011;38298;50.346;3.526;2022-12-22T11:03:56;2.05;;;0.95;;
52368;SDS011;38298;50.346;3.526;2022-12-22T11:06:23;3.03;;;0.70;;
52368;SDS011;38298;50.346;3.526;2022-12-22T11:08:49;1.13;;;0.77;;
52368;SDS011;38298;50.346;3.526;2022-12-22T11:11:38;2.42;;;0.95;;
52368;SDS011;38298;50.346;3.526;2022-12-22T11:16:30;4.78;;;0.80;;
52368;SDS011;38298;50.346;3.526;2022-12-22T11:21:59;1.95;;;1.23;;
52368;SDS011;38298;50.346;3.526;2022-12-22T11:27:06;4.53;;;1.58;;
52368;SDS011;38298;50.346;3.526;2022-12-22T11:34:53;4.72;;;2.08;;
52368;SDS011;38298;50.346;3.526;2022-12-22T11:37:27;3.85;;;2.42;;
52368;SDS011;38298;50.346;3.526;2022-12-22T11:39:55;10.48;;;3.17;;
52368;SDS011;38298;50.346;3.526;2022-12-22T12:00:25;5.95;;;2.60;;
52368;SDS011;38298;50.346;3.526;2022-12-22T12:05:59;7.05;;;1.80;;
52368;SDS011;38298;50.346;3.526;2022-12-22T12:10:57;5.18;;;1.65;;
52368;SDS011;38298;50.346;3.526;2022-12-22T12:13:32;9.48;;;2.03;;
52368;SDS011;38298;50.346;3.526;2022-12-22T12:16:23;4.78;;;2.00;;
52368;SDS011;38298;50.346;3.526;2022-12-22T12:18:57;6.47;;;1.80;;
52368;SDS011;38298;50.346;3.526;2022-12-22T12:21:36;7.72;;;1.80;;
52368;SDS011;38298;50.346;3.526;2022-12-22T12:26:48;13.70;;;1.98;;
52368;SDS011;38298;50.346;3.526;2022-12-22T12:31:54;15.35;;;2.47;;
52368;SDS011;38298;50.346;3.526;2022-12-22T12:34:21;10.02;;;2.22;;
52368;SDS011;38298;50.346;3.526;2022-12-22T12:36:52;11.32;;;1.90;;
52368;SDS011;38298;50.346;3.526;2022-12-22T12:42:15;20.95;;;2.80;;
52368;SDS011;38298;50.346;3.526;2022-12-22T12:44:46;27.40;;;3.50;;
52368;SDS011;38298;50.346;3.526;2022-12-22T12:47:34;18.33;;;2.90;;
52368;SDS011;38298;50.346;3.526;2022-12-22T12:57:49;25.85;;;2.78;;
52368;SDS011;38298;50.346;3.526;2022-12-22T13:10:29;26.17;;;3.20;;
52368;SDS011;38298;50.346;3.526;2022-12-22T13:12:55;23.33;;;3.80;;
52368;SDS011;38298;50.346;3.526;2022-12-22T13:17:51;26.60;;;3.38;;
52368;SDS011;38298;50.346;3.526;2022-12-22T13:20:20;18.30;;;3.42;;
52368;SDS011;38298;50.346;3.526;2022-12-22T13:22:46;28.60;;;3.78;;
52368;SDS011;38298;50.346;3.526;2022-12-22T13:25:16;52.47;;;5.18;;
52368;SDS011;38298;50.346;3.526;2022-12-22T13:27:43;32.67;;;3.67;;
52368;SDS011;38298;50.346;3.526;2022-12-22T13:30:16;36.70;;;4.18;;
52368;SDS011;38298;50.346;3.526;2022-12-22T13:32:44;35.40;;;5.15;;
52368;SDS011;38298;50.346;3.526;2022-12-22T13:38:05;37.63;;;4.55;;
52368;SDS011;38298;50.346;3.526;2022-12-22T13:40:41;31.67;;;4.40;;
52368;SDS011;38298;50.346;3.526;2022-12-22T13:43:11;31.42;;;4.20;;
52368;SDS011;38298;50.346;3.526;2022-12-22T13:45:40;41.65;;;4.05;;
52368;SDS011;38298;50.346;3.526;2022-12-22T13:48:17;44.38;;;5.15;;
52368;SDS011;38298;50.346;3.526;2022-12-22T13:50:45;44.60;;;5.13;;
52368;SDS011;38298;50.346;3.526;2022-12-22T13:53:14;50.40;;;4.70;;
52368;SDS011;38298;50.346;3.526;2022-12-22T13:55:41;37.42;;;4.50;;
52368;SDS011;38298;50.346;3.526;2022-12-22T13:58:29;38.13;;;4.57;;
52368;SDS011;38298;50.346;3.526;2022-12-22T14:03:35;51.30;;;5.78;;
52368;SDS011;38298;50.346;3.526;2022-12-22T14:06:01;35.90;;;5.07;;
52368;SDS011;38298;50.346;3.526;2022-12-22T14:08:27;53.78;;;6.57;;
52368;SDS011;38298;50.346;3.526;2022-12-22T14:10:53;52.35;;;5.65;;
52368;SDS011;38298;50.346;3.526;2022-12-22T14:13:22;56.20;;;5.72;;
52368;SDS011;38298;50.346;3.526;2022-12-22T14:15:58;33.63;;;4.97;;
52368;SDS011;38298;50.346;3.526;2022-12-22T14:18:24;40.47;;;5.30;;
52368;SDS011;38298;50.346;3.526;2022-12-22T14:20:50;36.90;;;4.60;;
52368;SDS011;38298;50.346;3.526;2022-12-22T14:25:43;46.00;;;5.53;;
52368;SDS011;38298;50.346;3.526;2022-12-22T14:28:21;44.38;;;5.85;;
52368;SDS011;38298;50.346;3.526;2022-12-22T14:30:48;43.45;;;4.78;;
52368;SDS011;38298;50.346;3.526;2022-12-22T14:33:17;44.17;;;5.53;;
52368;SDS011;38298;50.346;3.526;2022-12-22T14:38:56;53.90;;;5.28;;
52368;SDS011;38298;50.346;3.526;2022-12-22T14:41:30;52.00;;;6.03;;
52368;SDS011;38298;50.346;3.526;2022-12-22T14:44:15;52.92;;;5.53;;
52368;SDS011;38298;50.346;3.526;2022-12-22T14:46:43;56.20;;;6.32;;
52368;SDS011;38298;50.346;3.526;2022-12-22T14:49:16;46.75;;;4.95;;
52368;SDS011;38298;50.346;3.526;2022-12-22T14:51:56;51.30;;;5.40;;
52368;SDS011;38298;50.346;3.526;2022-12-22T14:54:25;50.70;;;9.38;;
52368;SDS011;38298;50.346;3.526;2022-12-22T14:56:52;50.95;;;5.40;;
52368;SDS011;38298;50.346;3.526;2022-12-22T14:59:25;38.42;;;4.78;;
52368;SDS011;38298;50.346;3.526;2022-12-22T15:02:02;49.33;;;5.78;;
52368;SDS011;38298;50.346;3.526;2022-12-22T15:04:29;38.00;;;5.93;;
52368;SDS011;38298;50.346;3.526;2022-12-22T15:07:13;43.92;;;5.25;;
52368;SDS011;38298;50.346;3.526;2022-12-22T15:09:40;46.28;;;6.05;;
52368;SDS011;38298;50.346;3.526;2022-12-22T15:12:09;40.65;;;5.63;;
52368;SDS011;38298;50.346;3.526;2022-12-22T15:14:35;39.33;;;5.57;;
52368;SDS011;38298;50.346;3.526;2022-12-22T15:17:02;42.22;;;4.25;;
52368;SDS011;38298;50.346;3.526;2022-12-22T15:19:29;53.83;;;6.65;;
52368;SDS011;38298;50.346;3.526;2022-12-22T15:21:56;52.40;;;5.70;;
52368;SDS011;38298;50.346;3.526;2022-12-22T15:24:22;40.28;;;5.18;;
52368;SDS011;38298;50.346;3.526;2022-12-22T15:26:48;45.00;;;5.40;;
52368;SDS011;38298;50.346;3.526;2022-12-22T15:29:14;43.30;;;5.45;;
52368;SDS011;38298;50.346;3.526;2022-12-22T15:31:40;47.58;;;5.75;;
52368;SDS011;38298;50.346;3.526;2022-12-22T15:34:11;42.30;;;5.60;;
52368;SDS011;38298;50.346;3.526;2022-12-22T15:36:38;41.88;;;6.55;;
52368;SDS011;38298;50.346;3.526;2022-12-22T15:39:08;48.53;;;5.53;;
52368;SDS011;38298;50.346;3.526;2022-12-22T15:41:37;40.67;;;5.10;;
52368;SDS011;38298;50.346;3.526;2022-12-22T15:44:03;45.75;;;5.00;;
52368;SDS011;38298;50.346;3.526;2022-12-22T15:46:28;44.03;;;5.00;;
52368;SDS011;38298;50.346;3.526;2022-12-22T15:48:55;46.05;;;6.10;;
52368;SDS011;38298;50.346;3.526;2022-12-22T15:51:22;47.88;;;5.55;;
52368;SDS011;38298;50.346;3.526;2022-12-22T15:53:49;33.88;;;4.50;;
52368;SDS011;38298;50.346;3.526;2022-12-22T15:56:19;40.17;;;4.20;;
52368;SDS011;38298;50.346;3.526;2022-12-22T15:58:45;34.13;;;4.30;;
52368;SDS011;38298;50.346;3.526;2022-12-22T16:01:11;43.72;;;5.55;;
52368;SDS011;38298;50.346;3.526;2022-12-22T16:03:37;33.30;;;4.53;;
52368;SDS011;38298;50.346;3.526;2022-12-22T16:06:04;55.65;;;6.32;;
52368;SDS011;38298;50.346;3.526;2022-12-22T16:08:32;34.40;;;5.22;;
52368;SDS011;38298;50.346;3.526;2022-12-22T16:11:01;43.70;;;4.93;;
52368;SDS011;38298;50.346;3.526;2022-12-22T16:13:27;49.40;;;6.45;;
52368;SDS011;38298;50.346;3.526;2022-12-22T16:15:53;40.03;;;5.85;;
52368;SDS011;38298;50.346;3.526;2022-12-22T16:18:20;35.22;;;4.82;;
52368;SDS011;38298;50.346;3.526;2022-12-22T16:20:46;43.55;;;5.30;;
52368;SDS011;38298;50.346;3.526;2022-12-22T16:23:18;45.28;;;4.45;;
52368;SDS011;38298;50.346;3.526;2022-12-22T16:25:44;34.40;;;4.57;;
52368;SDS011;38298;50.346;3.526;2022-12-22T16:28:14;35.72;;;3.58;;
52368;SDS011;38298;50.346;3.526;2022-12-22T16:30:42;36.88;;;3.88;;
52368;SDS011;38298;50.346;3.526;2022-12-22T16:33:11;47.90;;;5.65;;
52368;SDS011;38298;50.346;3.526;2022-12-22T16:35:38;35.70;;;4.30;;
52368;SDS011;38298;50.346;3.526;2022-12-22T16:38:04;37.50;;;4.43;;
52368;SDS011;38298;50.346;3.526;2022-12-22T16:40:30;37.75;;;5.03;;
52368;SDS011;38298;50.346;3.526;2022-12-22T16:45:33;37.35;;;3.60;;
52368;SDS011;38298;50.346;3.526;2022-12-22T16:48:03;30.73;;;3.95;;
52368;SDS011;38298;50.346;3.526;2022-12-22T16:50:29;25.42;;;3.50;;
52368;SDS011;38298;50.346;3.526;2022-12-22T16:52:59;31.17;;;3.70;;
52368;SDS011;38298;50.346;3.526;2022-12-22T16:55:25;26.23;;;3.10;;
52368;SDS011;38298;50.346;3.526;2022-12-22T16:57:51;33.05;;;3.60;;